Time;durP1;ratioP1;P1;durP2;ratioP2;P2;SDS_P1;SDS_P2;PMS_P1;PMS_P2;Temp;Humidity;BMP_temperature;BMP_pressure;BME280_temperature;BME280_humidity;BME280_pressure;Samples;Min_cycle;Max_cycle;Signal;HPM_P1;HPM_P2
2022/02/07 00:01:42;;;;;;;0.40;0.20;;;7.60;99.90;;;;;;5032824;28;20418;-70
2022/02/07 00:04:10;;;;;;;0.40;0.20;;;7.60;99.90;;;;;;5031907;28;20439;-70
2022/02/07 00:06:36;;;;;;;0.40;0.20;;;7.60;99.90;;;;;;5032935;28;20387;-69
2022/02/07 00:09:02;;;;;;;0.40;0.20;;;7.70;99.90;;;;;;5031943;28;20425;-70
2022/02/07 00:11:27;;;;;;;0.40;0.20;;;7.70;99.90;;;;;;5032752;28;20490;-71
2022/02/07 00:13:53;;;;;;;0.40;0.20;;;7.70;99.90;;;;;;5031666;28;20415;-73
2022/02/07 00:16:19;;;;;;;0.40;0.20;;;7.70;99.90;;;;;;5032441;28;20425;-72
2022/02/07 00:18:45;;;;;;;0.40;0.20;;;7.70;99.90;;;;;;5032407;28;20418;-70
2022/02/07 00:21:10;;;;;;;0.40;0.20;;;7.80;99.90;;;;;;5031600;28;20475;-70
2022/02/07 00:23:36;;;;;;;0.40;0.30;;;7.80;99.90;;;;;;5032328;28;20436;-69
2022/02/07 00:26:03;;;;;;;0.40;0.20;;;7.70;99.90;;;;;;5031525;28;20371;-69
2022/02/07 00:28:28;;;;;;;0.40;0.20;;;7.70;99.90;;;;;;5032059;28;20438;-70
2022/02/07 00:30:54;;;;;;;0.40;0.20;;;7.60;99.90;;;;;;5014619;28;20387;-70
2022/02/07 00:33:20;;;;;;;0.40;0.20;;;7.60;99.90;;;;;;5031696;28;20429;-69
2022/02/07 00:35:46;;;;;;;0.40;0.20;;;7.60;99.90;;;;;;5031637;28;20395;-71
2022/02/07 00:38:17;;;;;;;0.40;0.20;;;7.60;99.90;;;;;;5031383;28;20407;-72
2022/02/07 00:40:46;;;;;;;0.40;0.20;;;7.60;99.90;;;;;;5031419;28;20477;-70
2022/02/07 00:45:57;;;;;;;0.40;0.30;;;7.60;99.90;;;;;;5031251;28;20391;-69
2022/02/07 00:48:24;;;;;;;0.40;0.20;;;7.60;99.90;;;;;;5030959;28;20765;-69
2022/02/07 00:50:51;;;;;;;0.40;0.20;;;7.60;99.90;;;;;;5031899;28;20387;-70
2022/02/07 00:53:17;;;;;;;0.40;0.20;;;7.50;99.90;;;;;;5030854;28;20398;-69
2022/02/07 00:55:43;;;;;;;0.40;0.20;;;7.50;99.90;;;;;;5031878;28;20389;-68
2022/02/07 00:58:09;;;;;;;0.40;0.20;;;6.80;99.90;;;;;;5014254;28;20402;-70
2022/02/07 01:00:35;;;;;;;0.40;0.20;;;6.60;99.90;;;;;;5031311;28;20469;-68
2022/02/07 01:03:01;;;;;;;0.40;0.20;;;6.30;99.90;;;;;;5031918;28;20463;-68
2022/02/07 01:05:28;;;;;;;0.40;0.30;;;6.10;99.90;;;;;;5030819;28;20397;-69
2022/02/07 01:07:54;;;;;;;0.40;0.20;;;6.00;99.90;;;;;;5031748;28;20383;-68
2022/02/07 01:10:27;;;;;;;0.40;0.22;;;5.70;99.90;;;;;;5030281;28;20399;-68
2022/02/07 01:47:44;;;;;;;0.40;0.20;;;4.50;99.90;;;;;;5005962;28;20913;-72
2022/02/07 01:57:57;;;;;;;0.40;0.25;;;4.50;99.90;;;;;;5010133;28;20738;-76
2022/02/07 02:00:23;;;;;;;0.40;0.20;;;4.40;99.90;;;;;;5010499;28;20409;-73
2022/02/07 02:02:49;;;;;;;0.40;0.30;;;4.40;99.90;;;;;;5009880;28;20384;-73
2022/02/07 02:05:15;;;;;;;0.40;0.20;;;4.30;99.90;;;;;;5010725;28;20397;-71
2022/02/07 02:07:43;;;;;;;0.40;0.20;;;4.00;99.90;;;;;;5010822;28;20415;-69
2022/02/07 02:10:10;;;;;;;0.40;0.20;;;3.90;99.90;;;;;;5009882;28;21016;-72
2022/02/07 02:12:45;;;;;;;0.40;0.30;;;4.00;99.90;;;;;;5010844;28;20741;-71
2022/02/07 02:34:20;;;;;;;0.40;0.30;;;4.20;99.90;;;;;;5010916;28;20396;-72
2022/02/07 02:36:42;;;;;;;0.40;0.20;;;4.10;99.90;;;;;;5010616;28;20397;-71
2022/02/07 02:46:54;;;;;;;0.40;0.20;;;4.10;99.90;;;;;;5030335;28;20390;-71
2022/02/07 02:49:21;;;;;;;0.40;0.20;;;4.10;99.90;;;;;;5029717;28;20429;-71
2022/02/07 02:51:46;;;;;;;0.40;0.30;;;4.10;99.90;;;;;;5012471;28;20779;-71
2022/02/07 02:54:12;;;;;;;0.40;0.20;;;4.00;99.90;;;;;;5029747;28;20394;-71
2022/02/07 02:56:38;;;;;;;0.40;0.20;;;4.00;99.90;;;;;;5011552;28;20387;-71
2022/02/07 02:59:05;;;;;;;0.40;0.30;;;4.00;99.90;;;;;;5030044;28;20463;-71
2022/02/07 03:01:31;;;;;;;0.40;0.20;;;4.00;99.90;;;;;;5029147;28;20430;-71
2022/02/07 03:03:57;;;;;;;0.40;0.20;;;3.90;99.90;;;;;;5029068;28;20843;-70
2022/02/07 03:06:23;;;;;;;0.40;0.20;;;4.00;99.90;;;;;;5029169;28;20430;-70
2022/02/07 03:08:49;;;;;;;0.40;0.20;;;4.00;99.90;;;;;;5031915;28;20383;-70
2022/02/07 03:11:21;;;;;;;0.40;0.20;;;4.00;99.90;;;;;;5033561;28;20476;-71
2022/02/07 03:13:53;;;;;;;0.40;0.20;;;4.10;99.90;;;;;;5032647;28;20999;-70
2022/02/07 03:16:38;;;;;;;0.40;0.20;;;4.00;99.90;;;;;;5033136;28;20855;-69
2022/02/07 03:19:12;;;;;;;0.40;0.20;;;4.10;99.90;;;;;;5033487;28;20383;-70
2022/02/07 03:21:39;;;;;;;0.40;0.20;;;4.10;99.90;;;;;;5032436;28;20511;-70
2022/02/07 03:24:06;;;;;;;0.40;0.20;;;4.10;99.90;;;;;;5033255;28;20387;-70
2022/02/07 03:26:42;;;;;;;0.40;0.20;;;4.10;99.90;;;;;;5015531;28;20392;-69
2022/02/07 03:29:09;;;;;;;0.40;0.20;;;4.20;99.90;;;;;;5033369;28;20382;-69
2022/02/07 03:31:35;;;;;;;0.40;0.20;;;4.10;99.90;;;;;;5032586;28;20389;-70
2022/02/07 03:34:02;;;;;;;0.40;0.20;;;4.00;99.90;;;;;;5033141;28;20383;-70
2022/02/07 03:36:30;;;;;;;0.40;0.20;;;4.10;99.90;;;;;;5032829;28;20392;-70
2022/02/07 03:38:56;;;;;;;0.40;0.20;;;4.00;99.90;;;;;;5032285;28;20510;-71
2022/02/07 03:41:21;;;;;;;0.40;0.30;;;4.10;99.90;;;;;;5032639;28;20506;-69
2022/02/07 03:43:47;;;;;;;0.40;0.20;;;4.10;99.90;;;;;;5032409;28;20383;-69
2022/02/07 03:46:13;;;;;;;0.40;0.30;;;4.10;99.90;;;;;;5032901;28;20751;-70
2022/02/07 03:48:39;;;;;;;0.40;0.20;;;4.10;99.90;;;;;;5032708;28;20774;-69
2022/02/07 03:51:05;;;;;;;0.40;0.20;;;4.10;99.90;;;;;;5032439;28;20383;-69
2022/02/07 03:53:30;;;;;;;0.40;0.20;;;4.30;99.90;;;;;;5032552;28;20391;-68
2022/02/07 03:55:56;;;;;;;0.40;0.20;;;4.30;99.90;;;;;;5031802;28;20727;-68
2022/02/07 03:58:22;;;;;;;0.40;0.20;;;4.30;99.90;;;;;;5031445;28;20400;-69
2022/02/07 04:00:49;;;;;;;0.40;0.20;;;4.20;99.90;;;;;;5014858;28;20835;-68
2022/02/07 04:03:17;;;;;;;0.40;0.20;;;4.20;99.90;;;;;;5031763;28;20526;-67
2022/02/07 04:05:50;;;;;;;0.40;0.20;;;4.50;99.90;;;;;;5031295;28;20386;-68
2022/02/07 04:08:17;;;;;;;0.40;0.30;;;4.50;99.90;;;;;;5031576;28;20399;-68
2022/02/07 04:10:59;;;;;;;0.40;0.20;;;4.50;99.90;;;;;;5032113;28;20404;-68
2022/02/07 04:13:33;;;;;;;0.40;0.20;;;4.50;99.90;;;;;;5031994;28;20910;-70
2022/02/07 04:16:02;;;;;;;0.40;0.20;;;4.50;99.90;;;;;;5032185;28;20388;-71
2022/02/07 04:18:32;;;;;;;0.40;0.20;;;4.40;99.90;;;;;;5031939;28;20402;-71
2022/02/07 04:20:58;;;;;;;0.40;0.20;;;4.50;99.90;;;;;;5031231;28;20514;-70
2022/02/07 04:23:24;;;;;;;0.40;0.20;;;4.50;99.90;;;;;;5030000;28;20478;-68
2022/02/07 04:25:50;;;;;;;0.40;0.20;;;4.50;99.90;;;;;;5032196;28;20380;-68
2022/02/07 04:28:17;;;;;;;0.40;0.20;;;4.60;99.90;;;;;;5031245;28;20797;-69
2022/02/07 04:30:43;;;;;;;0.40;0.20;;;4.50;99.90;;;;;;5032210;28;20521;-68
2022/02/07 04:33:08;;;;;;;0.40;0.20;;;4.50;99.90;;;;;;5032912;28;20834;-68
2022/02/07 04:35:34;;;;;;;0.40;0.20;;;4.60;99.90;;;;;;5032329;28;20379;-70
2022/02/07 04:38:00;;;;;;;0.40;0.20;;;4.60;99.90;;;;;;5032517;28;20879;-69
2022/02/07 04:40:25;;;;;;;0.40;0.30;;;4.70;99.90;;;;;;5031850;28;20882;-68
2022/02/07 04:42:52;;;;;;;0.40;0.30;;;4.60;99.90;;;;;;5031929;28;20383;-70
2022/02/07 04:58:25;;;;;;;0.40;0.20;;;4.60;99.90;;;;;;5032040;28;20386;-72
2022/02/07 05:03:41;;;;;;;0.40;0.30;;;4.60;99.90;;;;;;5030858;28;20886;-70
2022/02/07 05:14:21;;;;;;;0.40;0.28;;;4.50;99.90;;;;;;5031494;28;20885;-75
2022/02/07 05:16:49;;;;;;;0.40;0.30;;;4.50;99.90;;;;;;5030992;28;20379;-74
2022/02/07 05:19:14;;;;;;;0.40;0.20;;;4.50;99.90;;;;;;5031389;28;20383;-73
2022/02/07 05:21:43;;;;;;;0.40;0.40;;;4.50;99.90;;;;;;5030736;28;20904;-75
2022/02/07 05:24:08;;;;;;;0.40;0.20;;;4.50;99.90;;;;;;5031309;28;20387;-73
2022/02/07 05:26:34;;;;;;;0.40;0.20;;;4.50;99.90;;;;;;5031624;28;20893;-73
2022/02/07 05:29:02;;;;;;;0.40;0.20;;;4.60;99.90;;;;;;5030799;28;20384;-73
2022/02/07 05:31:28;;;;;;;0.40;0.30;;;4.50;99.90;;;;;;5031480;28;20398;-73
2022/02/07 05:33:54;;;;;;;0.40;0.20;;;4.50;99.90;;;;;;5013044;28;20396;-72
2022/02/07 05:36:20;;;;;;;0.40;0.30;;;4.60;99.90;;;;;;5031548;28;20462;-71
2022/02/07 05:38:49;;;;;;;0.40;0.20;;;4.60;99.90;;;;;;5030983;28;20403;-71
2022/02/07 05:41:16;;;;;;;0.40;0.20;;;4.50;99.90;;;;;;5031153;28;20457;-72
2022/02/07 05:43:46;;;;;;;0.40;0.30;;;4.60;99.90;;;;;;5031134;28;20395;-72
2022/02/07 05:46:12;;;;;;;0.40;0.20;;;4.60;99.90;;;;;;5009514;28;20421;-72
2022/02/07 05:48:38;;;;;;;0.40;0.20;;;4.60;99.90;;;;;;5011195;28;20790;-71
2022/02/07 05:51:04;;;;;;;0.40;0.20;;;4.60;99.90;;;;;;5010665;28;20385;-72
2022/02/07 05:53:29;;;;;;;0.40;0.20;;;4.60;99.90;;;;;;5011594;28;20396;-72
2022/02/07 05:55:55;;;;;;;0.40;0.20;;;4.60;99.90;;;;;;5011068;28;20715;-71
2022/02/07 05:58:21;;;;;;;0.40;0.20;;;4.60;99.90;;;;;;4992988;28;20834;-72
2022/02/07 06:00:46;;;;;;;0.40;0.20;;;4.70;99.90;;;;;;5011418;28;20965;-71
2022/02/07 06:03:12;;;;;;;0.40;0.20;;;4.60;99.90;;;;;;5010393;28;20385;-72
2022/02/07 06:05:38;;;;;;;0.40;0.20;;;4.60;99.90;;;;;;5010972;28;20714;-72
2022/02/07 06:08:04;;;;;;;0.40;0.30;;;4.60;99.90;;;;;;5011212;28;20745;-71
2022/02/07 06:10:29;;;;;;;0.40;0.22;;;4.60;99.90;;;;;;5010225;28;20396;-71
2022/02/07 06:12:55;;;;;;;0.40;0.20;;;4.60;99.90;;;;;;5011395;28;20866;-71
2022/02/07 06:15:21;;;;;;;0.40;0.20;;;4.60;99.90;;;;;;5010438;28;20381;-72
2022/02/07 06:17:50;;;;;;;0.40;0.20;;;4.50;99.90;;;;;;5011133;28;20496;-72
2022/02/07 06:20:16;;;;;;;0.40;0.20;;;4.50;99.90;;;;;;5010484;28;20730;-72
2022/02/07 06:22:42;;;;;;;0.40;0.20;;;4.50;99.90;;;;;;5010671;28;20400;-73
2022/02/07 06:25:07;;;;;;;0.40;0.20;;;4.50;99.90;;;;;;5010513;28;20392;-72
2022/02/07 06:27:33;;;;;;;0.40;0.20;;;4.50;99.90;;;;;;5010038;28;20377;-73
2022/02/07 06:29:59;;;;;;;0.40;0.20;;;4.50;99.90;;;;;;4993130;28;20757;-72
2022/02/07 06:32:26;;;;;;;0.40;0.30;;;4.50;99.90;;;;;;4992131;28;20405;-72
2022/02/07 06:34:52;;;;;;;0.40;0.20;;;4.50;99.90;;;;;;4993020;28;20731;-73
2022/02/07 06:37:17;;;;;;;0.40;0.30;;;4.40;99.90;;;;;;4992931;28;20428;-72
2022/02/07 06:39:43;;;;;;;0.40;0.20;;;4.40;99.90;;;;;;5009980;28;20883;-72
2022/02/07 06:42:09;;;;;;;0.40;0.30;;;4.40;99.90;;;;;;4992936;28;20497;-72
2022/02/07 06:44:34;;;;;;;0.40;0.20;;;4.40;99.90;;;;;;5013162;28;20520;-72
2022/02/07 06:47:00;;;;;;;0.40;0.20;;;4.50;99.90;;;;;;5034142;28;20871;-73
2022/02/07 06:49:26;;;;;;;0.40;0.20;;;4.40;99.90;;;;;;5034477;28;20375;-72
2022/02/07 06:51:51;;;;;;;0.40;0.20;;;4.50;99.90;;;;;;5033330;28;20393;-72
2022/02/07 06:54:17;;;;;;;0.40;0.20;;;4.40;99.90;;;;;;5033969;28;20725;-72
2022/02/07 06:56:45;;;;;;;0.40;0.20;;;4.40;99.90;;;;;;5033243;28;20386;-72
2022/02/07 06:59:15;;;;;;;0.40;0.40;;;4.40;99.90;;;;;;5034376;28;20383;-72
2022/02/07 07:01:41;;;;;;;0.40;0.30;;;4.50;99.90;;;;;;5016045;28;20403;-72
2022/02/07 07:04:06;;;;;;;0.40;0.30;;;4.40;99.90;;;;;;5034130;28;20435;-71
2022/02/07 07:06:32;;;;;;;0.40;0.20;;;4.40;99.90;;;;;;5034083;28;20439;-71
2022/02/07 07:08:58;;;;;;;0.40;0.20;;;4.30;99.90;;;;;;5033304;28;20991;-72
2022/02/07 07:11:27;;;;;;;0.40;0.20;;;4.30;99.90;;;;;;5016067;28;20403;-73
2022/02/07 07:13:57;;;;;;;0.40;0.30;;;4.30;99.90;;;;;;5033427;28;20448;-71
2022/02/07 07:18:49;;;;;;;1.60;1.00;;;4.30;99.90;;;;;;5033161;28;20486;-72
2022/02/07 07:21:15;;;;;;;0.40;0.20;;;4.30;99.90;;;;;;5033553;28;20459;-72
2022/02/07 07:23:41;;;;;;;0.50;0.50;;;4.30;99.90;;;;;;5032425;28;20853;-71
2022/02/07 07:26:07;;;;;;;0.40;0.20;;;4.30;99.90;;;;;;5032734;28;20383;-71
2022/02/07 07:28:34;;;;;;;0.40;0.20;;;4.20;99.90;;;;;;4999991;28;20413;-72
2022/02/07 07:31:01;;;;;;;0.40;0.20;;;4.20;99.90;;;;;;5033054;28;20395;-72
2022/02/07 07:33:29;;;;;;;0.40;0.30;;;4.20;99.90;;;;;;5033474;28;20456;-72
2022/02/07 07:35:56;;;;;;;0.40;0.20;;;4.30;99.90;;;;;;5033306;28;20465;-73
2022/02/07 07:38:23;;;;;;;0.40;0.20;;;4.30;99.90;;;;;;5033658;28;20548;-72
2022/02/07 07:40:49;;;;;;;0.40;0.20;;;4.30;99.90;;;;;;5032830;28;20419;-72
2022/02/07 07:43:15;;;;;;;0.60;0.60;;;4.30;99.90;;;;;;5032791;28;20394;-71
2022/02/07 07:45:47;;;;;;;0.40;0.30;;;4.30;99.90;;;;;;5033278;28;20915;-71
2022/02/07 07:48:20;;;;;;;0.40;0.30;;;4.40;99.90;;;;;;5032439;28;20390;-72
2022/02/07 07:51:34;;;;;;;0.47;0.47;;;4.40;99.90;;;;;;5033305;28;20720;-71
2022/02/07 08:04:06;;;;;;;0.40;0.20;;;4.50;99.90;;;;;;5032043;28;20800;-71
2022/02/07 08:06:40;;;;;;;0.40;0.20;;;4.50;99.90;;;;;;5032192;28;20422;-71
2022/02/07 08:11:32;;;;;;;0.40;0.20;;;4.60;99.90;;;;;;5032164;28;20494;-72
2022/02/07 08:14:00;;;;;;;0.40;0.30;;;4.60;99.90;;;;;;5032658;28;20746;-72
2022/02/07 08:16:26;;;;;;;0.40;0.25;;;4.70;99.90;;;;;;5031601;28;20411;-72
2022/02/07 08:18:54;;;;;;;0.50;0.50;;;4.70;99.90;;;;;;5032162;28;20508;-71
2022/02/07 08:21:19;;;;;;;0.40;0.30;;;4.80;99.90;;;;;;5029293;28;20740;-72
2022/02/07 08:23:45;;;;;;;0.60;0.60;;;4.70;99.90;;;;;;5032386;28;20390;-72
2022/02/07 08:26:11;;;;;;;0.40;0.20;;;4.70;99.90;;;;;;5032495;28;20383;-72
2022/02/07 08:28:37;;;;;;;0.40;0.40;;;4.70;99.90;;;;;;5031575;28;20402;-71
2022/02/07 08:31:03;;;;;;;0.40;0.20;;;4.80;99.90;;;;;;5032294;28;20387;-72
2022/02/07 08:33:30;;;;;;;0.40;0.20;;;4.80;99.90;;;;;;5032131;28;20425;-72
2022/02/07 08:35:55;;;;;;;0.50;0.50;;;4.70;99.90;;;;;;5032327;28;20384;-72
2022/02/07 08:38:21;;;;;;;0.40;0.20;;;4.90;99.90;;;;;;5031669;28;20410;-72
2022/02/07 08:40:47;;;;;;;0.40;0.20;;;4.70;99.90;;;;;;5031161;28;20910;-72
2022/02/07 08:43:13;;;;;;;0.40;0.20;;;4.90;99.90;;;;;;5031895;28;20387;-72
2022/02/07 08:45:39;;;;;;;0.90;0.90;;;4.90;99.90;;;;;;5031225;28;20471;-72
2022/02/07 08:48:06;;;;;;;0.40;0.20;;;5.00;99.90;;;;;;5032058;28;20415;-73
2022/02/07 08:50:33;;;;;;;0.40;0.30;;;4.90;99.90;;;;;;5032051;28;20405;-72
2022/02/07 08:53:00;;;;;;;0.40;0.20;;;4.90;99.90;;;;;;5031192;28;20502;-73
2022/02/07 08:55:38;;;;;;;0.40;0.20;;;4.90;99.90;;;;;;5031617;28;20783;-73
2022/02/07 08:58:09;;;;;;;0.40;0.20;;;5.00;99.90;;;;;;5029800;28;20466;-73
2022/02/07 09:08:26;;;;;;;0.40;0.20;;;5.10;99.90;;;;;;5031428;28;20605;-73
2022/02/07 09:10:52;;;;;;;0.40;0.20;;;5.10;99.90;;;;;;5028909;28;20751;-73
2022/02/07 09:13:19;;;;;;;0.50;0.50;;;5.30;99.90;;;;;;5031028;28;20457;-72
2022/02/07 09:18:42;;;;;;;0.40;0.30;;;5.30;98.70;;;;;;5022060;28;20443;-72
2022/02/07 09:21:08;;;;;;;0.40;0.20;;;5.20;99.10;;;;;;5030709;28;20806;-72
2022/02/07 09:23:36;;;;;;;0.40;0.30;;;5.30;98.80;;;;;;5031436;28;20388;-72
2022/02/07 09:26:03;;;;;;;0.40;0.20;;;5.40;97.90;;;;;;5031669;28;20384;-72
2022/02/07 09:28:28;;;;;;;0.40;0.20;;;5.30;99.40;;;;;;5030869;28;20437;-72
2022/02/07 09:30:54;;;;;;;0.70;0.70;;;5.50;98.00;;;;;;5030999;28;20387;-72
2022/02/07 09:33:21;;;;;;;0.40;0.20;;;5.60;99.50;;;;;;5030608;28;20429;-73
2022/02/07 09:35:49;;;;;;;0.40;0.30;;;5.50;98.40;;;;;;5031426;28;20387;-73
2022/02/07 09:38:16;;;;;;;0.40;0.30;;;5.60;99.40;;;;;;5030719;28;20467;-72
2022/02/07 09:40:48;;;;;;;0.40;0.30;;;5.60;98.70;;;;;;5030566;28;20426;-73
2022/02/07 09:43:14;;;;;;;0.40;0.20;;;5.60;98.40;;;;;;5031134;28;20387;-73
2022/02/07 09:45:43;;;;;;;0.40;0.20;;;5.40;97.20;;;;;;5029868;28;20791;-72
2022/02/07 09:48:09;;;;;;;0.40;0.20;;;5.40;97.10;;;;;;5031097;28;20408;-73
2022/02/07 09:50:38;;;;;;;0.40;0.20;;;5.40;97.00;;;;;;5029947;28;20430;-72
2022/02/07 09:53:04;;;;;;;0.40;0.30;;;5.50;98.10;;;;;;5031096;28;20383;-71
2022/02/07 09:55:31;;;;;;;0.40;0.20;;;5.50;97.00;;;;;;5030180;28;20450;-71
2022/02/07 09:57:57;;;;;;;0.40;0.30;;;5.60;97.90;;;;;;5029609;28;20436;-72
2022/02/07 10:00:34;;;;;;;0.40;0.20;;;5.60;97.60;;;;;;5030969;28;20373;-72
2022/02/07 10:03:12;;;;;;;0.50;0.50;;;5.70;96.40;;;;;;5030730;28;20962;-72
2022/02/07 10:06:26;;;;;;;0.40;0.30;;;5.70;95.90;;;;;;5030011;28;20413;-72
2022/02/07 10:13:46;;;;;;;0.40;0.20;;;6.00;95.90;;;;;;5031558;28;20443;-71
2022/02/07 10:19:04;;;;;;;0.43;0.28;;;6.00;95.60;;;;;;5036098;28;20444;-71
2022/02/07 10:47:12;;;;;;;0.40;0.40;;;6.50;95.10;;;;;;5036418;28;20887;-72
2022/02/07 10:50:18;;;;;;;0.40;0.20;;;6.70;95.30;;;;;;5037392;28;20374;-73
2022/02/07 10:52:53;;;;;;;0.40;0.20;;;6.80;93.80;;;;;;5037093;28;20787;-73
2022/02/07 10:55:25;;;;;;;0.40;0.20;;;6.60;93.50;;;;;;5038141;28;20391;-72
2022/02/07 10:57:53;;;;;;;0.40;0.30;;;6.40;92.60;;;;;;5039091;28;20393;-71
2022/02/07 11:00:30;;;;;;;0.40;0.20;;;6.40;92.90;;;;;;5036912;28;20411;-71
2022/02/07 11:03:10;;;;;;;0.40;0.30;;;6.50;93.30;;;;;;5037907;28;20500;-70
2022/02/07 11:06:01;;;;;;;0.70;0.70;;;6.50;93.40;;;;;;5027499;28;20405;-72
2022/02/07 11:08:43;;;;;;;0.40;0.20;;;6.40;93.30;;;;;;5028699;28;20443;-72
2022/02/07 11:11:32;;;;;;;0.40;0.40;;;6.50;93.60;;;;;;5029617;28;20723;-72
2022/02/07 11:19:24;;;;;;;0.40;0.20;;;6.30;92.20;;;;;;5030266;28;20468;-72
2022/02/07 11:22:15;;;;;;;0.40;0.40;;;6.20;91.70;;;;;;5029815;28;20422;-71
2022/02/07 11:25:16;;;;;;;0.40;0.20;;;6.20;92.40;;;;;;5030252;28;20532;-72
2022/02/07 11:27:55;;;;;;;0.40;0.25;;;6.20;90.90;;;;;;5030063;28;20930;-71
2022/02/07 11:30:42;;;;;;;0.40;0.23;;;6.30;91.10;;;;;;5032171;28;20387;-72
2022/02/07 11:34:02;;;;;;;0.40;0.22;;;6.30;90.00;;;;;;5033603;28;20372;-71
2022/02/07 11:36:36;;;;;;;0.40;0.20;;;6.50;90.30;;;;;;5014822;28;20403;-72
2022/02/07 11:39:13;;;;;;;0.40;0.20;;;6.80;89.20;;;;;;5033543;28;20430;-72
2022/02/07 11:41:53;;;;;;;0.40;0.30;;;7.10;88.70;;;;;;5032339;28;20971;-71
2022/02/07 11:44:31;;;;;;;0.40;0.20;;;7.20;85.90;;;;;;5015696;28;20407;-72
2022/02/07 11:47:24;;;;;;;0.40;0.30;;;7.00;86.50;;;;;;5033136;28;20391;-71
2022/02/07 11:49:52;;;;;;;0.57;0.57;;;6.90;87.80;;;;;;5032643;28;20399;-71
2022/02/07 11:52:29;;;;;;;0.40;0.30;;;7.00;86.90;;;;;;5032710;28;20930;-72
2022/02/07 11:54:56;;;;;;;0.40;0.20;;;7.20;86.90;;;;;;5033139;28;20395;-72
2022/02/07 11:57:25;;;;;;;0.40;0.20;;;7.60;87.30;;;;;;5032504;28;20394;-72
2022/02/07 11:59:58;;;;;;;0.40;0.20;;;8.50;82.20;;;;;;5032293;28;20449;-72
2022/02/07 12:02:35;;;;;;;0.40;0.30;;;8.00;82.20;;;;;;5032404;28;20494;-71
2022/02/07 12:05:02;;;;;;;0.40;0.20;;;8.10;82.40;;;;;;5033123;28;20387;-72
2022/02/07 12:07:31;;;;;;;0.40;0.20;;;7.60;85.00;;;;;;5032362;28;20756;-73
2022/02/07 12:10:15;;;;;;;0.40;0.30;;;7.70;82.80;;;;;;5032221;28;21013;-72
2022/02/07 12:12:42;;;;;;;0.40;0.30;;;7.60;84.00;;;;;;5032137;28;20403;-72
2022/02/07 12:15:34;;;;;;;0.40;0.20;;;7.60;84.50;;;;;;5031706;28;20387;-71
2022/02/07 12:18:22;;;;;;;0.40;0.20;;;7.30;84.30;;;;;;5031074;28;20403;-72
2022/02/07 12:20:53;;;;;;;0.40;0.20;;;7.70;83.20;;;;;;5032330;28;20419;-70
2022/02/07 12:23:27;;;;;;;0.40;0.20;;;7.50;79.80;;;;;;5032233;28;20783;-71
2022/02/07 12:26:04;;;;;;;0.40;0.30;;;7.80;80.60;;;;;;5019053;28;20383;-72
2022/02/07 12:28:46;;;;;;;0.40;0.20;;;9.20;77.00;;;;;;5032658;28;20378;-70
2022/02/07 12:31:22;;;;;;;0.40;0.20;;;9.70;71.60;;;;;;5032145;28;20391;-71
2022/02/07 12:34:15;;;;;;;0.40;0.20;;;9.10;71.50;;;;;;5030461;28;20403;-70
2022/02/07 12:36:41;;;;;;;0.40;0.20;;;8.40;74.80;;;;;;5019445;28;20397;-71
2022/02/07 12:39:14;;;;;;;0.50;0.50;;;7.80;78.80;;;;;;5019883;28;20403;-71
2022/02/07 12:41:41;;;;;;;0.40;0.20;;;7.30;80.60;;;;;;5023469;28;20426;-72
2022/02/07 12:44:09;;;;;;;0.40;0.30;;;7.50;82.10;;;;;;5022629;28;20388;-72
2022/02/07 12:46:39;;;;;;;0.40;0.20;;;7.80;80.90;;;;;;5026456;28;20406;-71
2022/02/07 12:49:11;;;;;;;0.40;0.20;;;7.40;82.20;;;;;;5039375;28;20387;-71
2022/02/07 12:51:43;;;;;;;0.40;0.20;;;7.40;82.50;;;;;;5020661;28;20759;-73
2022/02/07 12:54:20;;;;;;;0.40;0.30;;;7.30;83.50;;;;;;5040719;28;20423;-72
2022/02/07 12:56:46;;;;;;;0.40;0.20;;;7.20;83.60;;;;;;5039640;28;20392;-74
2022/02/07 12:59:13;;;;;;;0.40;0.20;;;7.00;83.30;;;;;;5039399;28;20386;-73
2022/02/07 13:01:42;;;;;;;0.40;0.20;;;6.80;84.80;;;;;;5031597;28;20423;-73
2022/02/07 13:04:16;;;;;;;0.40;0.20;;;6.90;84.70;;;;;;5030118;28;20415;-73
2022/02/07 13:06:48;;;;;;;0.40;0.20;;;6.80;86.70;;;;;;5022193;28;20888;-73
2022/02/07 13:09:52;;;;;;;0.40;0.20;;;7.00;86.60;;;;;;5031369;28;20438;-74
2022/02/07 13:12:31;;;;;;;0.40;0.20;;;6.80;85.50;;;;;;5023851;28;20401;-74
2022/02/07 13:14:57;;;;;;;0.40;0.20;;;7.00;86.70;;;;;;5035170;28;20745;-73
2022/02/07 13:17:27;;;;;;;0.40;0.30;;;7.10;85.10;;;;;;5040331;28;20383;-75
2022/02/07 13:19:54;;;;;;;0.40;0.20;;;7.10;83.80;;;;;;5039321;28;20427;-71
2022/02/07 13:22:22;;;;;;;0.40;0.30;;;7.50;82.40;;;;;;5038041;28;20405;-72
2022/02/07 13:24:49;;;;;;;0.40;0.20;;;8.60;78.20;;;;;;5027614;28;20427;-74
2022/02/07 13:27:18;;;;;;;3.40;1.10;;;9.60;75.80;;;;;;5038894;28;20394;-73
2022/02/07 13:29:51;;;;;;;0.50;0.40;;;10.20;67.00;;;;;;5022957;28;20390;-73
2022/02/07 13:32:31;;;;;;;0.40;0.30;;;10.50;68.40;;;;;;5034326;28;20407;-74
2022/02/07 13:35:03;;;;;;;0.40;0.30;;;11.20;64.60;;;;;;5038661;28;20444;-75
2022/02/07 13:37:32;;;;;;;0.40;0.20;;;10.80;63.00;;;;;;5037314;28;20419;-74
2022/02/07 13:40:17;;;;;;;0.40;0.30;;;10.00;64.50;;;;;;5038389;28;20398;-73
2022/02/07 13:42:46;;;;;;;0.40;0.30;;;10.10;65.00;;;;;;5036219;28;20406;-75
2022/02/07 13:45:16;;;;;;;0.40;0.20;;;10.30;63.00;;;;;;5036573;28;20432;-74
2022/02/07 13:47:45;;;;;;;0.40;0.30;;;10.60;63.00;;;;;;5037908;28;20437;-74
2022/02/07 13:50:16;;;;;;;0.40;0.20;;;10.30;63.00;;;;;;5037457;28;20383;-74
2022/02/07 13:52:44;;;;;;;0.50;0.50;;;9.40;65.90;;;;;;5039792;28;20471;-73
2022/02/07 13:55:28;;;;;;;0.40;0.40;;;9.50;67.10;;;;;;5037696;28;20383;-73
2022/02/07 13:58:04;;;;;;;0.40;0.20;;;8.70;66.90;;;;;;5040158;28;20390;-73
2022/02/07 14:00:37;;;;;;;0.40;0.20;;;9.70;69.20;;;;;;5035773;28;20404;-74
2022/02/07 14:03:33;;;;;;;0.40;0.20;;;10.10;63.90;;;;;;5027297;28;20411;-73
2022/02/07 14:06:15;;;;;;;0.40;0.40;;;9.80;64.10;;;;;;5013701;28;20484;-74
2022/02/07 14:08:49;;;;;;;0.40;0.30;;;9.70;64.60;;;;;;5033926;28;20440;-75
2022/02/07 14:11:21;;;;;;;0.40;0.20;;;10.20;64.00;;;;;;5037138;28;20532;-75
2022/02/07 14:13:49;;;;;;;0.40;0.20;;;10.10;61.80;;;;;;5038520;28;20466;-74
2022/02/07 14:16:15;;;;;;;0.40;0.30;;;10.70;61.90;;;;;;5036834;28;20387;-73
2022/02/07 14:18:46;;;;;;;0.40;0.30;;;10.20;61.60;;;;;;5036298;28;20410;-74
2022/02/07 14:21:13;;;;;;;0.40;0.20;;;10.30;60.40;;;;;;5024024;28;20474;-74
2022/02/07 14:23:44;;;;;;;0.40;0.20;;;10.70;61.70;;;;;;5039776;28;20382;-75
2022/02/07 14:26:15;;;;;;;0.40;0.30;;;9.60;63.80;;;;;;5037245;28;20411;-74
2022/02/07 14:28:41;;;;;;;0.40;0.22;;;9.40;66.10;;;;;;5033257;28;20464;-75
2022/02/07 14:31:10;;;;;;;0.40;0.28;;;10.10;63.50;;;;;;5037552;28;20729;-73
2022/02/07 14:33:36;;;;;;;0.40;0.20;;;9.90;62.80;;;;;;5019744;28;20399;-75
2022/02/07 14:36:02;;;;;;;0.40;0.20;;;9.20;64.10;;;;;;5030819;28;20388;-74
2022/02/07 14:38:28;;;;;;;0.40;0.20;;;9.20;65.70;;;;;;5034691;28;20498;-74
2022/02/07 14:40:54;;;;;;;0.40;0.20;;;8.90;67.80;;;;;;5031185;28;20507;-74
2022/02/07 14:43:29;;;;;;;0.40;0.30;;;9.60;65.70;;;;;;5034600;28;20388;-74
2022/02/07 14:46:23;;;;;;;0.40;0.30;;;10.20;62.30;;;;;;5027057;28;20394;-74
2022/02/07 14:48:42;;;;;;;0.40;0.20;;;10.30;63.40;;;;;;5023899;28;20488;-74
2022/02/07 14:51:09;;;;;;;0.40;0.30;;;10.10;59.50;;;;;;5018595;28;20471;-74
2022/02/07 14:53:37;;;;;;;0.40;0.30;;;9.10;65.80;;;;;;4999360;28;20407;-75
2022/02/07 14:56:05;;;;;;;0.40;0.30;;;8.90;65.30;;;;;;5009801;28;20400;-74
2022/02/07 14:58:30;;;;;;;0.40;0.20;;;8.60;67.70;;;;;;5010555;28;20482;-72
2022/02/07 15:00:57;;;;;;;0.40;0.20;;;8.60;66.40;;;;;;4991797;28;20952;-73
2022/02/07 15:03:24;;;;;;;0.40;0.20;;;8.40;66.90;;;;;;5010305;28;20860;-73
2022/02/07 15:05:53;;;;;;;0.40;0.20;;;8.20;65.80;;;;;;5014110;28;20399;-73
2022/02/07 15:08:20;;;;;;;0.40;0.20;;;7.80;65.60;;;;;;5013884;28;20381;-72
2022/02/07 15:10:46;;;;;;;0.40;0.20;;;7.80;66.20;;;;;;4996587;28;20765;-74
2022/02/07 15:13:12;;;;;;;0.40;0.20;;;7.70;66.90;;;;;;5013336;28;20415;-73
2022/02/07 15:15:38;;;;;;;0.40;0.30;;;7.70;66.80;;;;;;5014050;28;20381;-74
2022/02/07 15:18:08;;;;;;;0.40;0.30;;;7.60;66.60;;;;;;5013396;28;20722;-73
2022/02/07 15:20:39;;;;;;;0.60;0.60;;;7.60;67.40;;;;;;5014205;28;20416;-74
2022/02/07 15:23:06;;;;;;;0.40;0.20;;;7.70;68.20;;;;;;5013237;28;20486;-71
2022/02/07 15:25:35;;;;;;;0.40;0.30;;;7.50;68.50;;;;;;5013847;28;20531;-72
2022/02/07 15:28:04;;;;;;;0.40;0.20;;;7.40;67.80;;;;;;5013886;28;20442;-74
2022/02/07 15:30:35;;;;;;;0.40;0.20;;;7.40;68.30;;;;;;5013778;28;20389;-73
2022/02/07 15:33:06;;;;;;;0.40;0.20;;;7.50;69.10;;;;;;5013640;28;20381;-73
2022/02/07 15:35:34;;;;;;;0.40;0.25;;;7.60;67.00;;;;;;5013469;28;20483;-73
2022/02/07 15:38:00;;;;;;;0.40;0.20;;;7.60;67.10;;;;;;5013844;28;20405;-74
2022/02/07 15:40:25;;;;;;;0.40;0.20;;;7.60;67.20;;;;;;4998865;28;20916;-73
2022/02/07 15:42:54;;;;;;;0.40;0.40;;;7.50;68.00;;;;;;5025733;28;20465;-72
2022/02/07 15:45:21;;;;;;;0.40;0.40;;;7.40;67.60;;;;;;5021529;28;20907;-72
2022/02/07 15:47:46;;;;;;;0.40;0.20;;;7.40;67.70;;;;;;5035838;28;20399;-72
2022/02/07 15:50:14;;;;;;;0.40;0.20;;;7.30;68.40;;;;;;5033089;28;20470;-72